TAM3510 SBFZ-SBSL
Flight info
| Callsign | TAM3510 |
|---|---|
| Flight time | 0h 57m |
| Altitude | 34000 |
| Route | ISUPI UZ81 SLI DCT |
| Aircraft | A321/M-SDE3FGHIRWY/LB1 |
Departure
| Time | 2026-04-24 21:20 |
|---|---|
| Airport | Pinto Martins International Airport (SBFZ) |
Arrival
| Time | 2026-04-24 22:17 |
|---|---|
| Airport | Marechal Cunha Machado International Airport (SBSL) |
| Time | Latitude | Longitude | Altitude | Speed | Heading |
|---|---|---|---|---|---|
| 2026-04-24 20:54 | -3.77873 | -38.53855 | 91 ft | 0 kts | 217° |
| 2026-04-24 21:12 | -3.77862 | -38.53847 | 93 ft | 4 kts | 221° |
| 2026-04-24 21:12 | -3.77849 | -38.53835 | 90 ft | 4 kts | 232° |
| 2026-04-24 21:12 | -3.77837 | -38.53805 | 92 ft | 4 kts | 287° |
| 2026-04-24 21:12 | -3.77841 | -38.53795 | 91 ft | 1 kts | 315° |
| 2026-04-24 21:15 | -3.77841 | -38.53796 | 91 ft | 1 kts | 315° |
| 2026-04-24 21:15 | -3.77830 | -38.53806 | 92 ft | 3 kts | 315° |
| 2026-04-24 21:15 | -3.77796 | -38.53843 | 92 ft | 11 kts | 308° |
| 2026-04-24 21:16 | -3.77737 | -38.53925 | 93 ft | 15 kts | 300° |
| 2026-04-24 21:16 | -3.77699 | -38.54015 | 92 ft | 14 kts | 284° |
| 2026-04-24 21:16 | -3.77673 | -38.54113 | 94 ft | 15 kts | 284° |
| 2026-04-24 21:16 | -3.77652 | -38.54196 | 94 ft | 9 kts | 284° |
| 2026-04-24 21:17 | -3.77636 | -38.54256 | 94 ft | 9 kts | 284° |
| 2026-04-24 21:17 | -3.77616 | -38.54333 | 93 ft | 14 kts | 285° |
| 2026-04-24 21:17 | -3.77533 | -38.54379 | 93 ft | 15 kts | 346° |
| 2026-04-24 21:17 | -3.77481 | -38.54417 | 97 ft | 14 kts | 292° |
| 2026-04-24 21:18 | -3.77413 | -38.54505 | 95 ft | 13 kts | 8° |
| 2026-04-24 21:18 | -3.77328 | -38.54479 | 94 ft | 13 kts | 22° |
| 2026-04-24 21:18 | -3.77323 | -38.54421 | 96 ft | 0 kts | 105° |
| 2026-04-24 21:19 | -3.77356 | -38.54298 | 97 ft | 52 kts | 105° |
| 2026-04-24 21:19 | -3.77509 | -38.53725 | 93 ft | 117 kts | 105° |
| 2026-04-24 21:19 | -3.77767 | -38.52765 | 101 ft | 166 kts | 105° |
| 2026-04-24 21:19 | -3.78074 | -38.51625 | 579 ft | 172 kts | 107° |
| 2026-04-24 21:20 | -3.78795 | -38.49176 | 1048 ft | 202 kts | 108° |
| 2026-04-24 21:20 | -3.79208 | -38.47772 | 1250 ft | 222 kts | 106° |
| 2026-04-24 21:20 | -3.79666 | -38.46185 | 1375 ft | 249 kts | 107° |
| 2026-04-24 21:21 | -3.80146 | -38.44494 | 1996 ft | 254 kts | 105° |
| 2026-04-24 21:21 | -3.80265 | -38.42728 | 2698 ft | 259 kts | 80° |
| 2026-04-24 21:21 | -3.79564 | -38.41065 | 3359 ft | 265 kts | 54° |
| 2026-04-24 21:21 | -3.78165 | -38.39855 | 4011 ft | 271 kts | 27° |
| 2026-04-24 21:22 | -3.76332 | -38.39404 | 4677 ft | 276 kts | 360° |
| 2026-04-24 21:22 | -3.74469 | -38.39860 | 5292 ft | 281 kts | 332° |
| 2026-04-24 21:22 | -3.73009 | -38.41167 | 5890 ft | 286 kts | 304° |
| 2026-04-24 21:22 | -3.72320 | -38.42294 | 6315 ft | 287 kts | 301° |
| 2026-04-24 21:23 | -3.70964 | -38.44618 | 7089 ft | 291 kts | 300° |
| 2026-04-24 21:23 | -3.70153 | -38.46474 | 7649 ft | 294 kts | 282° |
| 2026-04-24 21:23 | -3.69801 | -38.48503 | 8211 ft | 297 kts | 279° |
| 2026-04-24 21:23 | -3.69471 | -38.50553 | 8791 ft | 300 kts | 279° |
| 2026-04-24 21:24 | -3.69251 | -38.51926 | 9180 ft | 302 kts | 279° |
| 2026-04-24 21:24 | -3.68915 | -38.54009 | 9751 ft | 305 kts | 279° |
| 2026-04-24 21:24 | -3.68574 | -38.56120 | 10152 ft | 313 kts | 279° |
| 2026-04-24 21:24 | -3.68215 | -38.58339 | 10269 ft | 332 kts | 279° |
| 2026-04-24 21:25 | -3.67836 | -38.60677 | 10393 ft | 349 kts | 279° |
| 2026-04-24 21:25 | -3.67441 | -38.63109 | 10697 ft | 357 kts | 279° |
| 2026-04-24 21:25 | -3.67040 | -38.65575 | 11143 ft | 361 kts | 279° |
| 2026-04-24 21:25 | -3.66634 | -38.68068 | 11610 ft | 364 kts | 279° |
| 2026-04-24 21:26 | -3.66226 | -38.70581 | 12067 ft | 368 kts | 279° |
| 2026-04-24 21:26 | -3.65812 | -38.73123 | 12531 ft | 371 kts | 280° |
| 2026-04-24 21:26 | -3.65395 | -38.75683 | 12989 ft | 374 kts | 280° |
| 2026-04-24 21:26 | -3.64972 | -38.78267 | 13446 ft | 377 kts | 280° |
| 2026-04-24 21:27 | -3.64548 | -38.80869 | 13873 ft | 380 kts | 280° |
| 2026-04-24 21:27 | -3.64122 | -38.83491 | 14274 ft | 383 kts | 280° |
| 2026-04-24 21:27 | -3.63692 | -38.86133 | 14683 ft | 385 kts | 280° |
| 2026-04-24 21:27 | -3.63261 | -38.88786 | 15090 ft | 388 kts | 280° |
| 2026-04-24 21:28 | -3.62827 | -38.91456 | 15499 ft | 390 kts | 279° |
| 2026-04-24 21:28 | -3.62395 | -38.94107 | 15895 ft | 392 kts | 279° |
| 2026-04-24 21:28 | -3.61953 | -38.96807 | 16290 ft | 394 kts | 279° |
| 2026-04-24 21:28 | -3.61509 | -38.99521 | 16675 ft | 396 kts | 279° |
| 2026-04-24 21:29 | -3.61061 | -39.02249 | 17057 ft | 399 kts | 279° |
| 2026-04-24 21:29 | -3.60615 | -39.04996 | 17441 ft | 401 kts | 279° |
| 2026-04-24 21:29 | -3.60166 | -39.07757 | 17818 ft | 403 kts | 279° |
| 2026-04-24 21:29 | -3.59715 | -39.10536 | 18192 ft | 405 kts | 279° |
| 2026-04-24 21:30 | -3.59261 | -39.13327 | 18519 ft | 407 kts | 279° |
| 2026-04-24 21:30 | -3.58804 | -39.16132 | 18840 ft | 409 kts | 279° |
| 2026-04-24 21:30 | -3.58342 | -39.18950 | 19159 ft | 412 kts | 279° |
| 2026-04-24 21:30 | -3.57878 | -39.21786 | 19475 ft | 414 kts | 279° |
| 2026-04-24 21:31 | -3.57409 | -39.24631 | 19779 ft | 416 kts | 279° |
| 2026-04-24 21:31 | -3.56941 | -39.27492 | 20095 ft | 417 kts | 279° |
| 2026-04-24 21:31 | -3.56471 | -39.30367 | 20397 ft | 419 kts | 279° |
| 2026-04-24 21:31 | -3.55999 | -39.33251 | 20699 ft | 421 kts | 279° |
| 2026-04-24 21:32 | -3.55525 | -39.36150 | 20976 ft | 423 kts | 279° |
| 2026-04-24 21:32 | -3.55052 | -39.39065 | 21265 ft | 425 kts | 279° |
| 2026-04-24 21:32 | -3.54577 | -39.41988 | 21567 ft | 427 kts | 279° |
| 2026-04-24 21:32 | -3.54100 | -39.44925 | 21845 ft | 429 kts | 279° |
| 2026-04-24 21:33 | -3.53618 | -39.47876 | 22124 ft | 430 kts | 280° |
| 2026-04-24 21:33 | -3.53133 | -39.50835 | 22384 ft | 432 kts | 279° |
| 2026-04-24 21:33 | -3.52642 | -39.53817 | 22621 ft | 435 kts | 279° |
| 2026-04-24 21:33 | -3.52149 | -39.56809 | 22885 ft | 437 kts | 280° |
| 2026-04-24 21:34 | -3.51654 | -39.59820 | 23139 ft | 439 kts | 280° |
| 2026-04-24 21:34 | -3.51164 | -39.62799 | 23392 ft | 441 kts | 280° |
| 2026-04-24 21:34 | -3.50665 | -39.65835 | 23622 ft | 443 kts | 280° |
| 2026-04-24 21:34 | -3.50165 | -39.68883 | 23848 ft | 444 kts | 279° |
| 2026-04-24 21:35 | -3.49668 | -39.71941 | 24083 ft | 446 kts | 279° |
| 2026-04-24 21:35 | -3.49170 | -39.75006 | 24307 ft | 447 kts | 279° |
| 2026-04-24 21:35 | -3.48669 | -39.78083 | 24527 ft | 448 kts | 280° |
| 2026-04-24 21:35 | -3.48164 | -39.81161 | 24761 ft | 449 kts | 280° |
| 2026-04-24 21:36 | -3.47653 | -39.84254 | 24986 ft | 451 kts | 280° |
| 2026-04-24 21:36 | -3.47143 | -39.87351 | 25208 ft | 452 kts | 280° |
| 2026-04-24 21:36 | -3.46631 | -39.90458 | 25433 ft | 453 kts | 280° |
| 2026-04-24 21:36 | -3.46120 | -39.93573 | 25662 ft | 454 kts | 280° |
| 2026-04-24 21:37 | -3.45610 | -39.96701 | 25878 ft | 456 kts | 280° |
| 2026-04-24 21:37 | -3.45099 | -39.99833 | 26097 ft | 457 kts | 280° |
| 2026-04-24 21:37 | -3.44587 | -40.02972 | 26320 ft | 458 kts | 280° |
| 2026-04-24 21:37 | -3.44069 | -40.06127 | 26533 ft | 459 kts | 280° |
| 2026-04-24 21:38 | -3.43549 | -40.09285 | 26748 ft | 461 kts | 280° |
| 2026-04-24 21:38 | -3.43029 | -40.12454 | 26963 ft | 462 kts | 280° |
| 2026-04-24 21:38 | -3.42509 | -40.15628 | 27176 ft | 463 kts | 280° |
| 2026-04-24 21:38 | -3.41983 | -40.18817 | 27398 ft | 465 kts | 280° |
| 2026-04-24 21:39 | -3.41456 | -40.22010 | 27614 ft | 466 kts | 280° |
| 2026-04-24 21:39 | -3.40931 | -40.25209 | 27832 ft | 467 kts | 280° |
| 2026-04-24 21:39 | -3.40400 | -40.28429 | 28046 ft | 469 kts | 280° |
| 2026-04-24 21:39 | -3.39868 | -40.31649 | 28253 ft | 470 kts | 280° |
| 2026-04-24 21:40 | -3.39344 | -40.34839 | 28457 ft | 471 kts | 280° |
| 2026-04-24 21:40 | -3.38813 | -40.38082 | 28664 ft | 473 kts | 280° |
| 2026-04-24 21:40 | -3.38280 | -40.41327 | 28869 ft | 474 kts | 280° |
| 2026-04-24 21:40 | -3.37745 | -40.44584 | 29075 ft | 475 kts | 280° |
| 2026-04-24 21:41 | -3.37205 | -40.47857 | 29270 ft | 476 kts | 280° |
| 2026-04-24 21:41 | -3.36665 | -40.51128 | 29464 ft | 478 kts | 280° |
| 2026-04-24 21:41 | -3.36101 | -40.54412 | 29642 ft | 479 kts | 281° |
| 2026-04-24 21:41 | -3.35470 | -40.57686 | 29835 ft | 480 kts | 282° |
| 2026-04-24 21:42 | -3.34782 | -40.60961 | 30006 ft | 481 kts | 283° |
| 2026-04-24 21:42 | -3.34069 | -40.64235 | 30154 ft | 482 kts | 283° |
| 2026-04-24 21:42 | -3.33354 | -40.67515 | 30293 ft | 483 kts | 283° |
| 2026-04-24 21:42 | -3.32649 | -40.70811 | 30431 ft | 485 kts | 283° |
| 2026-04-24 21:43 | -3.31960 | -40.74114 | 30563 ft | 486 kts | 282° |
| 2026-04-24 21:43 | -3.31276 | -40.77426 | 30692 ft | 487 kts | 282° |
| 2026-04-24 21:43 | -3.30596 | -40.80751 | 30821 ft | 487 kts | 282° |
| 2026-04-24 21:43 | -3.29918 | -40.84072 | 31007 ft | 487 kts | 282° |
| 2026-04-24 21:44 | -3.29238 | -40.87390 | 31189 ft | 486 kts | 282° |
| 2026-04-24 21:44 | -3.28559 | -40.90700 | 31372 ft | 486 kts | 282° |
| 2026-04-24 21:44 | -3.27879 | -40.94007 | 31550 ft | 485 kts | 282° |
| 2026-04-24 21:44 | -3.27197 | -40.97311 | 31739 ft | 485 kts | 282° |
| 2026-04-24 21:45 | -3.26512 | -41.00615 | 31928 ft | 484 kts | 282° |
| 2026-04-24 21:45 | -3.25826 | -41.03904 | 32116 ft | 484 kts | 282° |
| 2026-04-24 21:45 | -3.25140 | -41.07198 | 32293 ft | 483 kts | 282° |
| 2026-04-24 21:45 | -3.24455 | -41.10493 | 32478 ft | 483 kts | 282° |
| 2026-04-24 21:46 | -3.23777 | -41.13780 | 32650 ft | 482 kts | 282° |
| 2026-04-24 21:46 | -3.23102 | -41.17063 | 32835 ft | 482 kts | 282° |
| 2026-04-24 21:46 | -3.22426 | -41.20348 | 33014 ft | 481 kts | 282° |
| 2026-04-24 21:46 | -3.21749 | -41.23624 | 33193 ft | 481 kts | 282° |
| 2026-04-24 21:47 | -3.21074 | -41.26897 | 33367 ft | 480 kts | 282° |
| 2026-04-24 21:47 | -3.20625 | -41.29068 | 33488 ft | 480 kts | 282° |
| 2026-04-24 21:47 | -3.19720 | -41.33438 | 33727 ft | 479 kts | 282° |
| 2026-04-24 21:47 | -3.19044 | -41.36702 | 33897 ft | 479 kts | 282° |
| 2026-04-24 21:48 | -3.18370 | -41.39951 | 33948 ft | 475 kts | 282° |
| 2026-04-24 21:48 | -3.17024 | -41.46436 | 33934 ft | 479 kts | 282° |
| 2026-04-24 21:49 | -3.15652 | -41.53013 | 33941 ft | 486 kts | 282° |
| 2026-04-24 21:49 | -3.14276 | -41.59672 | 33934 ft | 491 kts | 281° |
| 2026-04-24 21:50 | -3.12904 | -41.66319 | 33938 ft | 491 kts | 282° |
| 2026-04-24 21:50 | -3.11505 | -41.73054 | 33930 ft | 491 kts | 282° |
| 2026-04-24 21:51 | -3.10123 | -41.79708 | 33940 ft | 492 kts | 281° |
| 2026-04-24 21:51 | -3.08758 | -41.86418 | 33943 ft | 493 kts | 281° |
| 2026-04-24 21:52 | -3.07401 | -41.93139 | 33941 ft | 493 kts | 281° |
| 2026-04-24 21:52 | -3.06036 | -41.99870 | 33955 ft | 494 kts | 281° |
| 2026-04-24 21:53 | -3.04664 | -42.06609 | 33957 ft | 495 kts | 281° |
| 2026-04-24 21:53 | -3.03286 | -42.13358 | 33968 ft | 495 kts | 281° |
| 2026-04-24 21:54 | -3.01899 | -42.20109 | 33967 ft | 496 kts | 282° |
| 2026-04-24 21:54 | -3.00468 | -42.26857 | 33970 ft | 496 kts | 282° |
| 2026-04-24 21:55 | -2.99036 | -42.33602 | 33967 ft | 496 kts | 282° |
| 2026-04-24 21:55 | -2.97615 | -42.40353 | 33968 ft | 496 kts | 282° |
| 2026-04-24 21:56 | -2.96207 | -42.47102 | 33968 ft | 496 kts | 282° |
| 2026-04-24 21:56 | -2.94788 | -42.53849 | 33965 ft | 495 kts | 282° |
| 2026-04-24 21:57 | -2.93367 | -42.60593 | 33970 ft | 496 kts | 282° |
| 2026-04-24 21:57 | -2.91944 | -42.67341 | 33972 ft | 496 kts | 281° |
| 2026-04-24 21:58 | -2.90522 | -42.74085 | 33966 ft | 496 kts | 282° |
| 2026-04-24 21:58 | -2.89106 | -42.80781 | 33873 ft | 493 kts | 281° |
| 2026-04-24 21:58 | -2.88401 | -42.84144 | 32782 ft | 498 kts | 281° |
| 2026-04-24 21:59 | -2.87689 | -42.87553 | 31848 ft | 502 kts | 282° |
| 2026-04-24 21:59 | -2.86970 | -42.90976 | 30965 ft | 503 kts | 282° |
| 2026-04-24 21:59 | -2.86245 | -42.94414 | 29948 ft | 508 kts | 282° |
| 2026-04-24 21:59 | -2.85507 | -42.97883 | 28837 ft | 511 kts | 282° |
| 2026-04-24 22:00 | -2.84769 | -43.01361 | 27822 ft | 512 kts | 282° |
| 2026-04-24 22:00 | -2.84037 | -43.04827 | 27177 ft | 505 kts | 282° |
| 2026-04-24 22:00 | -2.83319 | -43.08247 | 26485 ft | 500 kts | 282° |
| 2026-04-24 22:00 | -2.82608 | -43.11634 | 25800 ft | 496 kts | 282° |
| 2026-04-24 22:01 | -2.81897 | -43.14997 | 25118 ft | 492 kts | 282° |
| 2026-04-24 22:01 | -2.81184 | -43.18351 | 24072 ft | 496 kts | 282° |
| 2026-04-24 22:01 | -2.80464 | -43.21743 | 23171 ft | 497 kts | 282° |
| 2026-04-24 22:01 | -2.79758 | -43.25093 | 22538 ft | 488 kts | 282° |
| 2026-04-24 22:02 | -2.79065 | -43.28396 | 21847 ft | 482 kts | 282° |
| 2026-04-24 22:02 | -2.78381 | -43.31657 | 21150 ft | 476 kts | 282° |
| 2026-04-24 22:02 | -2.77705 | -43.34881 | 20451 ft | 471 kts | 282° |
| 2026-04-24 22:02 | -2.77034 | -43.38073 | 19739 ft | 467 kts | 282° |
| 2026-04-24 22:03 | -2.76366 | -43.41233 | 19043 ft | 462 kts | 283° |
| 2026-04-24 22:03 | -2.75702 | -43.44356 | 18359 ft | 457 kts | 283° |
| 2026-04-24 22:03 | -2.75044 | -43.47451 | 17617 ft | 453 kts | 283° |
| 2026-04-24 22:03 | -2.74395 | -43.50514 | 16954 ft | 446 kts | 283° |
| 2026-04-24 22:04 | -2.73761 | -43.53524 | 16422 ft | 438 kts | 283° |
| 2026-04-24 22:04 | -2.73147 | -43.56441 | 15872 ft | 431 kts | 283° |
| 2026-04-24 22:04 | -2.72534 | -43.59351 | 15333 ft | 424 kts | 283° |
| 2026-04-24 22:04 | -2.71929 | -43.62216 | 14796 ft | 418 kts | 283° |
| 2026-04-24 22:05 | -2.71334 | -43.65048 | 14241 ft | 413 kts | 283° |
| 2026-04-24 22:05 | -2.70747 | -43.67842 | 13688 ft | 409 kts | 283° |
| 2026-04-24 22:05 | -2.70167 | -43.70608 | 13087 ft | 403 kts | 283° |
| 2026-04-24 22:05 | -2.69596 | -43.73326 | 12529 ft | 396 kts | 282° |
| 2026-04-24 22:06 | -2.69326 | -43.76073 | 11634 ft | 400 kts | 266° |
| 2026-04-24 22:06 | -2.69764 | -43.78799 | 11125 ft | 393 kts | 259° |
| 2026-04-24 22:06 | -2.70274 | -43.81444 | 10833 ft | 380 kts | 259° |
| 2026-04-24 22:06 | -2.70757 | -43.83980 | 10724 ft | 363 kts | 259° |
| 2026-04-24 22:07 | -2.71219 | -43.86403 | 10597 ft | 347 kts | 259° |
| 2026-04-24 22:07 | -2.71663 | -43.88719 | 10483 ft | 332 kts | 259° |
| 2026-04-24 22:07 | -2.72089 | -43.90945 | 10351 ft | 320 kts | 259° |
| 2026-04-24 22:07 | -2.72504 | -43.93104 | 10088 ft | 313 kts | 259° |
| 2026-04-24 22:08 | -2.72912 | -43.95219 | 10013 ft | 309 kts | 259° |
| 2026-04-24 22:08 | -2.73321 | -43.97342 | 9651 ft | 312 kts | 259° |
| 2026-04-24 22:08 | -2.73733 | -43.99472 | 9234 ft | 311 kts | 259° |
| 2026-04-24 22:08 | -2.74141 | -44.01582 | 8845 ft | 308 kts | 259° |
| 2026-04-24 22:09 | -2.74546 | -44.03684 | 8457 ft | 307 kts | 259° |
| 2026-04-24 22:09 | -2.74943 | -44.05760 | 8127 ft | 302 kts | 259° |
| 2026-04-24 22:09 | -2.75340 | -44.07827 | 7737 ft | 301 kts | 259° |
| 2026-04-24 22:09 | -2.75736 | -44.09879 | 7350 ft | 299 kts | 258° |
| 2026-04-24 22:10 | -2.76124 | -44.11884 | 6962 ft | 299 kts | 258° |
| 2026-04-24 22:10 | -2.76514 | -44.13906 | 6647 ft | 295 kts | 258° |
| 2026-04-24 22:10 | -2.76901 | -44.15923 | 6257 ft | 293 kts | 258° |
| 2026-04-24 22:10 | -2.77283 | -44.17912 | 5899 ft | 291 kts | 258° |
| 2026-04-24 22:11 | -2.77665 | -44.19894 | 5507 ft | 289 kts | 258° |
| 2026-04-24 22:11 | -2.78045 | -44.21862 | 5137 ft | 286 kts | 258° |
| 2026-04-24 22:11 | -2.78417 | -44.23798 | 4645 ft | 280 kts | 258° |
| 2026-04-24 22:11 | -2.78611 | -44.25726 | 4258 ft | 279 kts | 274° |
| 2026-04-24 22:12 | -2.78215 | -44.27610 | 3853 ft | 277 kts | 291° |
| 2026-04-24 22:12 | -2.77257 | -44.29268 | 3303 ft | 270 kts | 311° |
| 2026-04-24 22:12 | -2.76099 | -44.30644 | 3172 ft | 248 kts | 311° |
| 2026-04-24 22:12 | -2.75036 | -44.31947 | 3085 ft | 234 kts | 310° |
| 2026-04-24 22:13 | -2.74004 | -44.33162 | 2953 ft | 225 kts | 320° |
| 2026-04-24 22:13 | -2.72688 | -44.33798 | 2849 ft | 199 kts | 354° |
| 2026-04-24 22:13 | -2.71396 | -44.33646 | 2698 ft | 182 kts | 25° |
| 2026-04-24 22:13 | -2.70386 | -44.32961 | 2543 ft | 172 kts | 39° |
| 2026-04-24 22:14 | -2.69484 | -44.32232 | 2453 ft | 162 kts | 39° |
| 2026-04-24 22:14 | -2.68622 | -44.31536 | 2321 ft | 157 kts | 39° |
| 2026-04-24 22:14 | -2.67784 | -44.30860 | 2154 ft | 154 kts | 39° |
| 2026-04-24 22:14 | -2.66958 | -44.30194 | 1954 ft | 152 kts | 38° |
| 2026-04-24 22:15 | -2.66149 | -44.29542 | 1765 ft | 146 kts | 39° |
| 2026-04-24 22:15 | -2.65366 | -44.28910 | 1575 ft | 144 kts | 38° |
| 2026-04-24 22:15 | -2.64593 | -44.28287 | 1387 ft | 144 kts | 39° |
| 2026-04-24 22:15 | -2.63809 | -44.27654 | 1208 ft | 143 kts | 38° |
| 2026-04-24 22:16 | -2.63295 | -44.27240 | 1081 ft | 143 kts | 38° |
| 2026-04-24 22:16 | -2.62521 | -44.26616 | 906 ft | 143 kts | 38° |
| 2026-04-24 22:16 | -2.61739 | -44.25985 | 732 ft | 145 kts | 39° |
| 2026-04-24 22:16 | -2.60699 | -44.25142 | 479 ft | 145 kts | 39° |
| 2026-04-24 22:17 | -2.60168 | -44.24715 | 323 ft | 146 kts | 38° |
| 2026-04-24 22:17 | -2.59147 | -44.23893 | 166 ft | 130 kts | 41° |
| 2026-04-24 22:17 | -2.58719 | -44.23547 | 164 ft | 89 kts | 39° |
| 2026-04-24 22:17 | -2.58508 | -44.23390 | 163 ft | 11 kts | 358° |
| 2026-04-24 22:18 | -2.58459 | -44.23422 | 163 ft | 7 kts | 310° |
| 2026-04-24 22:18 | -2.58441 | -44.23465 | 163 ft | 6 kts | 267° |
| 2026-04-24 22:18 | -2.58451 | -44.23493 | 163 ft | 3 kts | 246° |
| 2026-04-24 22:18 | -2.58456 | -44.23504 | 163 ft | 0 kts | 247° |
| 2026-04-24 22:19 | -2.58456 | -44.23505 | 163 ft | 1 kts | 248° |
| 2026-04-24 22:19 | -2.58463 | -44.23523 | 163 ft | 5 kts | 249° |
| 2026-04-24 22:19 | -2.58477 | -44.23559 | 163 ft | 6 kts | 250° |
| 2026-04-24 22:19 | -2.58467 | -44.23596 | 163 ft | 5 kts | 326° |
| 2026-04-24 22:20 | -2.58438 | -44.23605 | 163 ft | 3 kts | 342° |
| 2026-04-24 22:20 | -2.58433 | -44.23607 | 163 ft | 0 kts | 342° |